Strona główna
Zdjęcia satelitarne 15-dni prognozyKlimatMeteorologia morska Cyklony Błyskawica LotniskoFAQ Gazetka O
Pogoda : Europa Afryka Ameryka Północna Ameryka Południowa Azja Australia-Oceania Inny
Języki Kontakt

Albert, Francja

Albert-Picardie

Szerokość geograficzna: 49-58-21N, Długość geograficzna: 002-41-29E, wysokość: 111 m


METAR: LFAQ 202030Z AUTO 21008KT 9999 SCT025 BKN058 12/11 Q1016
TAF: LFAQ 201400Z 2015/2024 23012KT 9999 BKN025

czas: 23:07 (21:07 UTC)

Aktualna obserwacja pogody

Raport powstał 37 minut temu, godzina 20:30 UTC  
Wiatr 08 kt od południowo-południowy zachód
Temperatura 12°C
Wilgotność 94%
Ciśnienie 1016 hPa
Widzialność 10 km lub więcej
Rozproszone chmury na wysokości 2500 ft
Przerywane chmury na wysokości 5800 ft

Jednostka miary

Prognoza

Raport powstał 07 godziny i 07 minut temu, godzina 14:00 UTC  
Prognoza ważna od 20 godzina 15 UTC do 20 godzina 24 UTC
Wiatr 12 kt od południowy zachód
Widzialność 10 km lub więcej
Przerywane chmury na wysokości 2500 ft
Informacje na tej stronie internetowej podlegają klauzuli o wyłączeniu odpowiedzialności
Pogoda : Europa Afryka Ameryka Północna Ameryka Południowa Azja Australia-Oceania Inny
Zdjęcia satelitarne 15-dni prognozyKlimatMeteorologia morska Cyklony Błyskawica LotniskoFAQ Języki Kontakt Gazetka O